createdAt,value
2022-11-19T00:01:03.947Z,9.27
2022-11-19T00:02:07.541Z,8.60
2022-11-19T00:03:09.793Z,8.50
2022-11-19T00:04:12.821Z,8.90
2022-11-19T00:05:15.192Z,8.48
2022-11-19T00:06:20.072Z,8.65
2022-11-19T00:07:22.159Z,8.75
2022-11-19T00:08:26.707Z,8.43
2022-11-19T00:09:29.776Z,9.02
2022-11-19T00:10:34.416Z,8.70
2022-11-19T00:11:54.995Z,8.75
2022-11-19T00:12:58.160Z,8.40
2022-11-19T00:14:00.162Z,8.40
2022-11-19T00:15:02.189Z,8.30
2022-11-19T00:16:06.990Z,8.93
2022-11-19T00:17:09.088Z,9.20
2022-11-19T00:18:12.181Z,9.32
2022-11-19T00:19:14.693Z,9.77
2022-11-19T00:20:18.699Z,9.73
2022-11-19T00:21:20.763Z,9.65
2022-11-19T00:22:23.808Z,9.75
2022-11-19T00:23:27.205Z,9.60
2022-11-19T00:24:30.242Z,10.15
2022-11-19T00:25:32.410Z,9.43
2022-11-19T00:26:35.434Z,9.75
2022-11-19T00:27:37.770Z,9.02
2022-11-19T00:28:42.126Z,9.52
2022-11-19T00:29:44.146Z,9.32
2022-11-19T00:30:48.648Z,9.25
2022-11-19T00:31:50.992Z,9.07
2022-11-19T00:32:54.129Z,8.18
2022-11-19T00:33:56.216Z,9.20
2022-11-19T00:34:59.285Z,8.52
2022-11-19T00:36:02.253Z,8.13
2022-11-19T00:37:06.587Z,8.25
2022-11-19T00:38:08.945Z,8.70
2022-11-19T00:39:13.476Z,8.65
2022-11-19T00:40:15.741Z,8.00
2022-11-19T00:41:19.260Z,8.20
2022-11-19T00:42:25.322Z,8.50
2022-11-19T00:43:45.735Z,8.13
2022-11-19T00:44:48.811Z,8.63
2022-11-19T00:45:50.871Z,7.70
2022-11-19T00:46:53.922Z,8.85
2022-11-19T00:47:55.957Z,7.57
2022-11-19T00:49:00.663Z,8.75
2022-11-19T00:50:02.714Z,7.60
2022-11-19T00:51:06.177Z,8.13
2022-11-19T00:52:09.665Z,8.27
2022-11-19T00:53:11.670Z,8.55
2022-11-19T00:54:16.169Z,7.90
2022-11-19T00:55:18.217Z,8.32
2022-11-19T00:56:23.366Z,8.40
2022-11-19T00:57:25.497Z,7.57
2022-11-19T00:58:28.766Z,7.85
2022-11-19T00:59:31.831Z,8.30
2022-11-19T01:00:33.933Z,7.82
2022-11-19T01:01:37.011Z,7.93
2022-11-19T01:02:39.113Z,8.13
2022-11-19T01:03:45.340Z,9.35
2022-11-19T01:04:48.419Z,8.90
2022-11-19T01:05:50.866Z,9.38
2022-11-19T01:06:54.154Z,10.50
2022-11-19T01:07:56.416Z,10.45
2022-11-19T01:08:59.677Z,12.30
2022-11-19T01:10:03.279Z,13.13
2022-11-19T01:11:07.971Z,12.82
2022-11-19T01:12:09.992Z,16.58
2022-11-19T01:13:31.064Z,16.10
2022-11-19T01:14:34.112Z,15.25
2022-11-19T01:15:36.254Z,13.50
2022-11-19T01:16:41.189Z,13.77
2022-11-19T01:17:43.302Z,13.43
2022-11-19T01:18:48.536Z,13.18
2022-11-19T01:19:50.543Z,12.80
2022-11-19T01:20:53.736Z,12.55
2022-11-19T01:21:56.775Z,11.40
2022-11-19T01:22:58.806Z,11.88
2022-11-19T01:24:02.756Z,12.38
2022-11-19T01:25:07.495Z,12.70
2022-11-19T01:26:11.076Z,13.45
2022-11-19T01:27:13.089Z,12.45
2022-11-19T01:28:16.145Z,12.18
2022-11-19T01:29:18.484Z,12.50
2022-11-19T01:30:21.677Z,12.30
2022-11-19T01:31:25.975Z,13.27
2022-11-19T01:32:29.057Z,13.23
2022-11-19T01:33:31.109Z,12.32
2022-11-19T01:34:34.178Z,12.27
2022-11-19T01:35:36.214Z,12.70
2022-11-19T01:36:39.237Z,12.65
2022-11-19T01:37:41.317Z,12.50
2022-11-19T01:38:50.534Z,12.60
2022-11-19T01:39:52.633Z,12.30
2022-11-19T01:40:58.007Z,12.32
2022-11-19T01:41:59.986Z,12.45
2022-11-19T01:43:03.091Z,13.05
2022-11-19T01:44:07.108Z,11.75
2022-11-19T01:45:25.348Z,12.07
2022-11-19T01:46:30.537Z,12.25
2022-11-19T01:47:33.081Z,12.45
2022-11-19T01:48:40.483Z,11.65
2022-11-19T01:49:42.596Z,11.70
2022-11-19T01:50:49.842Z,12.65
2022-11-19T01:51:56.207Z,11.95
2022-11-19T01:52:59.607Z,11.45
2022-11-19T01:54:07.182Z,11.65
2022-11-19T01:55:10.293Z,12.40
2022-11-19T01:56:15.414Z,12.50
2022-11-19T01:57:19.372Z,12.43
2022-11-19T01:58:25.272Z,12.15
2022-11-19T01:59:28.598Z,11.85
2022-11-19T02:00:31.692Z,12.27
2022-11-19T02:01:34.168Z,12.27
2022-11-19T02:02:37.384Z,11.77
2022-11-19T02:03:40.271Z,12.20
2022-11-19T02:04:44.318Z,13.18
2022-11-19T02:05:47.279Z,12.75
2022-11-19T02:06:50.371Z,12.73
2022-11-19T02:07:55.609Z,11.88
2022-11-19T02:08:58.669Z,12.15
2022-11-19T02:10:02.788Z,11.73
2022-11-19T02:11:28.237Z,12.95
2022-11-19T02:12:44.147Z,11.27
2022-11-19T02:13:56.238Z,11.43
2022-11-19T02:15:21.870Z,11.52
2022-11-19T02:16:33.029Z,11.95
2022-11-19T02:17:51.612Z,12.13
2022-11-19T02:18:56.585Z,11.55
2022-11-19T02:20:39.622Z,11.63
2022-11-19T02:21:52.169Z,10.98
2022-11-19T02:23:14.270Z,11.40
2022-11-19T02:24:44.193Z,10.32
2022-11-19T02:26:12.220Z,11.32
2022-11-19T02:27:48.504Z,11.30
2022-11-19T02:28:54.634Z,10.63
2022-11-19T02:30:10.610Z,11.60
2022-11-19T02:31:17.401Z,10.52
2022-11-19T02:32:26.440Z,11.05
2022-11-19T02:33:37.072Z,11.55
2022-11-19T02:34:41.814Z,11.60
2022-11-19T02:35:50.075Z,11.23
2022-11-19T02:37:00.840Z,11.25
2022-11-19T02:39:16.394Z,10.68
2022-11-19T02:40:25.901Z,10.60
2022-11-19T02:41:33.974Z,10.18
2022-11-19T02:42:44.343Z,10.63
2022-11-19T02:43:47.509Z,10.45
2022-11-19T02:44:59.869Z,11.27
2022-11-19T02:46:09.016Z,11.43
2022-11-19T02:47:15.145Z,10.90
2022-11-19T02:48:23.341Z,10.25
2022-11-19T02:49:30.354Z,10.57
2022-11-19T02:50:37.215Z,11.57
2022-11-19T02:51:39.439Z,11.45
2022-11-19T02:52:44.994Z,10.50
2022-11-19T02:53:47.604Z,10.65
2022-11-19T02:54:50.769Z,10.82
2022-11-19T02:56:11.235Z,10.82
2022-11-19T02:57:14.890Z,10.82
2022-11-19T02:58:37.071Z,10.85
2022-11-19T03:00:01.565Z,10.35
2022-11-19T03:01:25.552Z,10.40
2022-11-19T03:02:49.812Z,10.18
2022-11-19T03:04:11.450Z,9.95
2022-11-19T03:05:20.711Z,10.35
2022-11-19T03:06:27.743Z,10.95
2022-11-19T03:07:30.922Z,11.55
2022-11-19T03:08:33.434Z,11.05
2022-11-19T03:09:41.430Z,11.73
2022-11-19T03:10:51.617Z,10.75
2022-11-19T03:12:04.428Z,11.18
2022-11-19T03:13:27.016Z,10.65
2022-11-19T03:14:53.266Z,11.23
2022-11-19T03:16:15.360Z,11.38
2022-11-19T03:17:26.596Z,10.63
2022-11-19T03:18:33.316Z,11.02
2022-11-19T03:19:44.354Z,10.80
2022-11-19T03:20:51.342Z,10.88
2022-11-19T03:21:58.679Z,11.02
2022-11-19T03:23:05.687Z,10.63
2022-11-19T03:24:14.821Z,10.90
2022-11-19T03:25:22.827Z,10.13
2022-11-19T03:26:29.478Z,10.60
2022-11-19T03:27:38.381Z,10.70
2022-11-19T03:28:41.491Z,10.98
2022-11-19T03:29:48.831Z,11.20
2022-11-19T03:30:52.602Z,10.80
2022-11-19T03:32:00.264Z,11.07
2022-11-19T03:33:08.249Z,11.00
2022-11-19T03:34:16.318Z,11.10
2022-11-19T03:35:23.619Z,10.52
2022-11-19T03:36:30.193Z,10.80
2022-11-19T03:37:37.721Z,10.02
2022-11-19T03:38:44.376Z,10.45
2022-11-19T03:39:50.480Z,11.00
2022-11-19T03:40:54.848Z,11.40
2022-11-19T03:41:58.781Z,11.30
2022-11-19T03:43:03.560Z,10.95
2022-11-19T03:44:16.470Z,10.63
2022-11-19T03:45:22.785Z,11.75
2022-11-19T03:46:27.561Z,10.77
2022-11-19T03:47:34.721Z,10.77
2022-11-19T03:48:40.382Z,10.05
2022-11-19T03:49:49.813Z,10.80
2022-11-19T03:50:54.820Z,10.02
2022-11-19T03:52:02.872Z,10.43
2022-11-19T03:53:05.113Z,11.35
2022-11-19T03:54:09.598Z,10.93
2022-11-19T03:55:12.182Z,10.65
2022-11-19T03:56:21.627Z,10.60
2022-11-19T03:57:27.203Z,10.30
2022-11-19T03:58:29.751Z,10.70
2022-11-19T03:59:32.821Z,10.40
2022-11-19T04:00:34.846Z,10.57
2022-11-19T04:01:38.501Z,10.68
2022-11-19T04:02:40.720Z,10.10
2022-11-19T04:04:05.606Z,10.65
2022-11-19T04:05:09.213Z,9.77
2022-11-19T04:06:12.233Z,10.32
2022-11-19T04:07:16.551Z,10.82
2022-11-19T04:08:19.793Z,9.75
2022-11-19T04:09:22.064Z,10.02
2022-11-19T04:10:25.261Z,9.82
2022-11-19T04:12:29.226Z,10.70
2022-11-19T04:13:31.319Z,10.70
2022-11-19T04:14:34.382Z,11.18
2022-11-19T04:15:36.387Z,10.25
2022-11-19T04:16:39.519Z,11.32
2022-11-19T04:17:42.865Z,10.25
2022-11-19T04:18:46.288Z,10.43
2022-11-19T04:19:49.870Z,10.23
2022-11-19T04:20:52.176Z,10.13
2022-11-19T04:21:55.230Z,10.82
2022-11-19T04:22:57.294Z,10.63
2022-11-19T04:24:00.365Z,10.50
2022-11-19T04:25:03.544Z,10.38
2022-11-19T04:26:05.845Z,10.38
2022-11-19T04:27:08.841Z,10.40
2022-11-19T04:28:10.857Z,10.27
2022-11-19T04:29:13.910Z,10.38
2022-11-19T04:30:16.604Z,10.80
2022-11-19T04:31:19.671Z,10.82
2022-11-19T04:32:22.673Z,10.30
2022-11-19T04:33:24.720Z,11.05
2022-11-19T04:34:29.134Z,10.40
2022-11-19T04:35:31.146Z,11.02
2022-11-19T04:36:34.918Z,11.10
2022-11-19T04:37:37.000Z,11.10
2022-11-19T04:38:40.033Z,11.30
2022-11-19T04:39:42.053Z,10.98
2022-11-19T04:40:45.118Z,11.35
2022-11-19T04:41:47.179Z,11.82
2022-11-19T04:42:50.215Z,11.57
2022-11-19T04:43:52.332Z,12.48
2022-11-19T04:44:55.372Z,13.55
2022-11-19T04:45:57.460Z,15.23
2022-11-19T04:47:00.817Z,15.88
2022-11-19T04:48:02.851Z,17.05
2022-11-19T04:49:05.937Z,16.55
2022-11-19T04:50:10.244Z,16.10
2022-11-19T04:51:13.284Z,15.25
2022-11-19T04:52:15.356Z,14.95
2022-11-19T04:53:18.504Z,15.45
2022-11-19T04:54:20.686Z,14.68
2022-11-19T04:55:23.734Z,14.30
2022-11-19T04:56:25.833Z,13.70
2022-11-19T04:57:28.979Z,14.70
2022-11-19T04:58:31.382Z,14.32
2022-11-19T04:59:34.431Z,13.27
2022-11-19T05:00:36.517Z,13.73
2022-11-19T05:01:39.726Z,14.63
2022-11-19T05:02:41.823Z,13.93
2022-11-19T05:03:44.939Z,14.35
2022-11-19T05:04:46.948Z,13.75
2022-11-19T05:05:51.395Z,13.00
2022-11-19T05:06:53.391Z,11.90
2022-11-19T05:07:56.471Z,11.43
2022-11-19T05:08:58.512Z,11.68
2022-11-19T05:10:01.605Z,12.13
2022-11-19T05:11:03.780Z,11.48
2022-11-19T05:12:08.001Z,10.20
2022-11-19T05:13:10.517Z,9.77
2022-11-19T05:14:13.617Z,10.10
2022-11-19T05:15:15.643Z,9.70
2022-11-19T05:16:18.716Z,10.35
2022-11-19T05:17:20.811Z,9.95
2022-11-19T05:18:24.662Z,9.70
2022-11-19T05:19:27.728Z,9.13
2022-11-19T05:20:29.788Z,9.70
2022-11-19T05:21:34.231Z,9.10
2022-11-19T05:22:36.271Z,9.10
2022-11-19T05:23:39.370Z,9.23
2022-11-19T05:24:41.461Z,8.60
2022-11-19T05:25:44.544Z,9.18
2022-11-19T05:26:46.603Z,9.23
2022-11-19T05:27:49.712Z,9.18
2022-11-19T05:28:52.729Z,9.65
2022-11-19T05:29:54.874Z,8.80
2022-11-19T05:30:57.951Z,8.60
2022-11-19T05:32:00.006Z,9.10
2022-11-19T05:33:03.054Z,8.90
2022-11-19T05:34:05.285Z,8.15
2022-11-19T05:35:09.465Z,8.98
2022-11-19T05:36:11.528Z,8.35
2022-11-19T05:37:16.045Z,8.95
2022-11-19T05:38:18.056Z,8.60
2022-11-19T05:39:22.429Z,8.52
2022-11-19T05:40:24.620Z,8.15
2022-11-19T05:41:27.650Z,8.02
2022-11-19T05:42:29.688Z,8.50
2022-11-19T05:43:32.732Z,9.05
2022-11-19T05:44:34.857Z,8.82
2022-11-19T05:45:37.887Z,8.38
2022-11-19T05:46:39.921Z,8.15
2022-11-19T05:47:47.368Z,8.52
2022-11-19T05:48:50.710Z,8.30
2022-11-19T05:49:53.850Z,8.15
2022-11-19T05:50:55.904Z,8.32
2022-11-19T05:51:58.981Z,8.40
2022-11-19T05:53:02.599Z,7.90
2022-11-19T05:54:05.851Z,8.32
2022-11-19T05:55:08.059Z,7.43
2022-11-19T05:56:11.234Z,8.02
2022-11-19T05:57:13.251Z,7.28
2022-11-19T05:58:16.331Z,8.02
2022-11-19T05:59:18.623Z,6.93
2022-11-19T06:00:21.995Z,7.50
2022-11-19T06:01:25.288Z,7.28
2022-11-19T06:02:28.424Z,7.30
2022-11-19T06:03:30.827Z,7.50
2022-11-19T06:04:34.268Z,7.85
2022-11-19T06:05:40.338Z,7.07
2022-11-19T06:06:43.800Z,7.38
2022-11-19T06:07:45.781Z,7.60
2022-11-19T06:08:50.631Z,6.57
2022-11-19T06:09:52.736Z,7.10
2022-11-19T06:10:55.811Z,7.18
2022-11-19T06:11:57.901Z,7.28
2022-11-19T06:13:01.329Z,6.93
2022-11-19T06:14:03.895Z,6.97
2022-11-19T06:15:07.949Z,7.30
2022-11-19T06:16:09.951Z,7.70
2022-11-19T06:17:13.048Z,7.68
2022-11-19T06:18:15.284Z,7.18
2022-11-19T06:19:18.808Z,7.05
2022-11-19T06:20:20.982Z,7.63
2022-11-19T06:21:24.059Z,7.20
2022-11-19T06:22:26.085Z,7.28
2022-11-19T06:23:29.131Z,7.30
2022-11-19T06:24:32.681Z,7.57
2022-11-19T06:25:35.676Z,7.05
2022-11-19T06:26:37.949Z,7.38
2022-11-19T06:27:41.060Z,7.00
2022-11-19T06:28:43.131Z,7.25
2022-11-19T06:29:46.388Z,7.20
2022-11-19T06:30:48.439Z,7.40
2022-11-19T06:31:51.532Z,7.15
2022-11-19T06:32:54.582Z,7.53
2022-11-19T06:33:56.718Z,6.93
2022-11-19T06:34:59.762Z,6.85
2022-11-19T06:36:01.800Z,7.07
2022-11-19T06:37:04.957Z,6.60
2022-11-19T06:38:07.005Z,7.20
2022-11-19T06:39:10.277Z,7.30
2022-11-19T06:40:15.968Z,6.95
2022-11-19T06:41:18.396Z,6.75
2022-11-19T06:42:39.433Z,7.28
2022-11-19T06:43:43.042Z,7.00
2022-11-19T06:44:46.154Z,6.75
2022-11-19T06:45:48.146Z,6.32
2022-11-19T06:46:51.212Z,7.05
2022-11-19T06:47:53.400Z,7.10
2022-11-19T06:48:56.541Z,6.93
2022-11-19T06:49:58.766Z,6.85
2022-11-19T06:51:02.555Z,7.47
2022-11-19T06:52:05.100Z,6.70
2022-11-19T06:53:08.290Z,7.43
2022-11-19T06:54:10.439Z,6.07
2022-11-19T06:55:14.991Z,7.15
2022-11-19T06:56:17.104Z,7.32
2022-11-19T06:57:20.202Z,6.90
2022-11-19T06:58:22.299Z,6.95
2022-11-19T06:59:25.383Z,7.22
2022-11-19T07:00:27.451Z,7.55
2022-11-19T07:01:30.567Z,7.25
2022-11-19T07:02:32.751Z,7.22
2022-11-19T07:03:35.946Z,7.35
2022-11-19T07:04:38.243Z,7.63
2022-11-19T07:05:41.367Z,7.35
2022-11-19T07:06:43.496Z,7.38
2022-11-19T07:07:46.684Z,7.22
2022-11-19T07:08:49.014Z,7.45
2022-11-19T07:09:52.190Z,7.45
2022-11-19T07:10:56.565Z,6.90
2022-11-19T07:11:59.710Z,7.22
2022-11-19T07:13:02.240Z,7.60
2022-11-19T07:14:05.388Z,7.70
2022-11-19T07:15:08.292Z,7.63
2022-11-19T07:16:11.381Z,7.38
2022-11-19T07:17:14.504Z,7.65
2022-11-19T07:18:16.582Z,6.90
2022-11-19T07:19:19.970Z,7.00
2022-11-19T07:20:22.195Z,7.47
2022-11-19T07:21:25.365Z,7.72
2022-11-19T07:22:28.507Z,6.97
2022-11-19T07:23:30.649Z,7.32
2022-11-19T07:24:33.797Z,7.80
2022-11-19T07:25:35.979Z,7.43
2022-11-19T07:26:40.474Z,7.03
2022-11-19T07:27:43.959Z,7.28
2022-11-19T07:28:47.051Z,7.63
2022-11-19T07:29:50.159Z,8.02
2022-11-19T07:30:52.211Z,8.00
2022-11-19T07:31:55.358Z,7.30
2022-11-19T07:32:58.191Z,7.88
2022-11-19T07:34:02.007Z,7.72
2022-11-19T07:35:04.605Z,8.18
2022-11-19T07:36:15.329Z,7.97
2022-11-19T07:37:21.198Z,8.13
2022-11-19T07:38:23.279Z,9.23
2022-11-19T07:39:26.467Z,9.27
2022-11-19T07:40:29.614Z,10.57
2022-11-19T07:41:50.081Z,11.50
2022-11-19T07:42:53.761Z,9.20
2022-11-19T07:43:55.926Z,9.90
2022-11-19T07:44:59.042Z,10.95
2022-11-19T07:46:05.932Z,10.32
2022-11-19T07:47:09.192Z,10.57
2022-11-19T07:48:11.322Z,9.70
2022-11-19T07:49:14.692Z,9.82
2022-11-19T07:50:17.283Z,9.25
2022-11-19T07:51:20.399Z,9.00
2022-11-19T07:52:22.491Z,8.75
2022-11-19T07:53:25.571Z,9.95
2022-11-19T07:54:27.720Z,9.20
2022-11-19T07:55:30.829Z,8.95
2022-11-19T07:56:32.984Z,9.10
2022-11-19T07:57:36.382Z,8.27
2022-11-19T07:58:39.856Z,8.35
2022-11-19T07:59:42.917Z,8.77
2022-11-19T08:00:45.013Z,8.20
2022-11-19T08:01:48.191Z,8.25
2022-11-19T08:02:50.568Z,8.57
2022-11-19T08:03:56.741Z,8.75
2022-11-19T08:04:59.223Z,8.77
2022-11-19T08:06:04.122Z,8.63
2022-11-19T08:07:07.599Z,8.68
2022-11-19T08:08:09.768Z,8.07
2022-11-19T08:09:12.876Z,8.50
2022-11-19T08:10:15.518Z,8.50
2022-11-19T08:11:19.029Z,7.68
2022-11-19T08:12:22.182Z,7.88
2022-11-19T08:13:24.337Z,8.05
2022-11-19T08:14:29.014Z,7.30
2022-11-19T08:15:31.643Z,7.80
2022-11-19T08:16:52.237Z,7.72
2022-11-19T08:18:13.720Z,6.85
2022-11-19T08:19:16.774Z,7.15
2022-11-19T08:20:19.970Z,7.00
2022-11-19T08:21:22.076Z,7.35
2022-11-19T08:22:25.234Z,6.82
2022-11-19T08:23:27.304Z,7.38
2022-11-19T08:24:30.514Z,7.20
2022-11-19T08:25:32.624Z,7.32
2022-11-19T08:26:35.779Z,6.88
2022-11-19T08:27:37.881Z,6.68
2022-11-19T08:28:41.006Z,6.93
2022-11-19T08:29:44.546Z,6.65
2022-11-19T08:30:47.721Z,7.40
2022-11-19T08:31:50.952Z,7.30
2022-11-19T08:32:54.014Z,6.70
2022-11-19T08:33:56.144Z,7.55
2022-11-19T08:34:59.293Z,7.35
2022-11-19T08:36:01.606Z,7.00
2022-11-19T08:37:04.773Z,7.00
2022-11-19T08:38:06.907Z,7.43
2022-11-19T08:39:11.195Z,7.18
2022-11-19T08:40:13.296Z,6.90
2022-11-19T08:41:42.445Z,7.13
2022-11-19T08:43:00.918Z,6.85
2022-11-19T08:44:03.422Z,7.20
2022-11-19T08:45:09.703Z,6.88
2022-11-19T08:46:11.840Z,6.97
2022-11-19T08:47:14.975Z,7.65
2022-11-19T08:48:17.034Z,7.00
2022-11-19T08:49:20.424Z,8.00
2022-11-19T08:50:22.991Z,8.35
2022-11-19T08:51:26.128Z,7.95
2022-11-19T08:52:28.395Z,7.68
2022-11-19T08:53:31.590Z,7.32
2022-11-19T08:54:33.700Z,7.38
2022-11-19T08:55:36.921Z,7.28
2022-11-19T08:56:39.149Z,7.45
2022-11-19T08:57:42.396Z,7.45
2022-11-19T08:58:44.616Z,6.95
2022-11-19T08:59:47.750Z,6.40
2022-11-19T09:00:51.461Z,6.20
2022-11-19T09:01:54.594Z,7.32
2022-11-19T09:02:56.807Z,6.47
2022-11-19T09:03:59.953Z,6.65
2022-11-19T09:05:03.140Z,5.97
2022-11-19T09:06:06.344Z,6.10
2022-11-19T09:07:09.682Z,5.80
2022-11-19T09:08:11.914Z,6.43
2022-11-19T09:09:15.066Z,6.35
2022-11-19T09:10:18.270Z,6.97
2022-11-19T09:11:23.455Z,6.53
2022-11-19T09:12:27.770Z,6.45
2022-11-19T09:13:31.027Z,6.10
2022-11-19T09:14:33.105Z,5.85
2022-11-19T09:15:36.854Z,6.47
2022-11-19T09:16:40.334Z,6.45
2022-11-19T09:17:46.732Z,5.72
2022-11-19T09:18:50.258Z,5.60
2022-11-19T09:19:52.322Z,6.18
2022-11-19T09:20:56.138Z,5.70
2022-11-19T09:21:59.238Z,5.22
2022-11-19T09:23:01.506Z,5.60
2022-11-19T09:24:05.016Z,5.90
2022-11-19T09:25:09.046Z,5.97
2022-11-19T09:26:14.414Z,6.03
2022-11-19T09:27:16.509Z,5.78
2022-11-19T09:28:19.571Z,5.93
2022-11-19T09:29:21.912Z,6.15
2022-11-19T09:30:25.102Z,6.30
2022-11-19T09:31:28.235Z,6.68
2022-11-19T09:32:32.733Z,6.18
2022-11-19T09:33:37.100Z,5.90
2022-11-19T09:34:41.465Z,6.78
2022-11-19T09:35:43.527Z,6.38
2022-11-19T09:36:46.628Z,6.05
2022-11-19T09:37:48.725Z,6.35
2022-11-19T09:38:51.887Z,6.20
2022-11-19T09:39:53.995Z,6.60
2022-11-19T09:41:01.247Z,5.78
2022-11-19T09:42:14.421Z,6.40
2022-11-19T09:43:30.035Z,6.30
2022-11-19T09:44:42.262Z,6.32
2022-11-19T09:45:54.937Z,6.25
2022-11-19T09:47:07.055Z,6.30
2022-11-19T09:48:22.107Z,6.50
2022-11-19T09:49:31.916Z,7.10
2022-11-19T09:50:48.989Z,7.10
2022-11-19T09:52:04.828Z,6.65
2022-11-19T09:53:14.785Z,6.90
2022-11-19T09:54:20.856Z,6.18
2022-11-19T09:55:28.988Z,7.35
2022-11-19T09:56:36.210Z,6.57
2022-11-19T09:57:48.743Z,6.25
2022-11-19T09:58:51.834Z,6.28
2022-11-19T09:59:57.516Z,6.25
2022-11-19T10:01:01.522Z,6.03
2022-11-19T10:02:13.181Z,5.85
2022-11-19T10:03:21.426Z,5.50
2022-11-19T10:04:27.011Z,6.88
2022-11-19T10:05:37.072Z,6.65
2022-11-19T10:06:50.119Z,5.80
2022-11-19T10:08:01.949Z,6.25
2022-11-19T10:09:23.440Z,6.07
2022-11-19T10:10:38.819Z,5.97
2022-11-19T10:11:54.209Z,5.72
2022-11-19T10:13:13.339Z,5.90
2022-11-19T10:14:30.344Z,5.85
2022-11-19T10:15:38.285Z,5.97
2022-11-19T10:16:53.103Z,5.60
2022-11-19T10:18:09.142Z,6.35
2022-11-19T10:19:31.987Z,5.80
2022-11-19T10:20:53.426Z,5.75
2022-11-19T10:22:06.466Z,4.97
2022-11-19T10:23:15.315Z,5.18
2022-11-19T10:24:27.195Z,5.55
2022-11-19T10:25:36.147Z,5.65
2022-11-19T10:26:41.898Z,5.53
2022-11-19T10:27:49.041Z,5.60
2022-11-19T10:28:56.781Z,5.38
2022-11-19T10:30:04.682Z,5.60
2022-11-19T10:31:12.839Z,5.22
2022-11-19T10:32:26.042Z,5.10
2022-11-19T10:33:33.805Z,5.10
2022-11-19T10:34:39.276Z,4.90
2022-11-19T10:35:46.971Z,4.57
2022-11-19T10:36:56.023Z,4.80
2022-11-19T10:38:01.491Z,4.75
2022-11-19T10:39:09.359Z,5.00
2022-11-19T10:40:16.196Z,4.40
2022-11-19T10:41:24.707Z,4.50
2022-11-19T10:42:32.026Z,4.35
2022-11-19T10:43:41.705Z,4.22
2022-11-19T10:44:50.566Z,4.15
2022-11-19T10:45:54.464Z,4.68
2022-11-19T10:46:56.684Z,4.47
2022-11-19T10:48:09.093Z,4.28
2022-11-19T10:49:11.873Z,3.88
2022-11-19T10:50:21.295Z,3.47
2022-11-19T10:51:27.783Z,3.40
2022-11-19T10:52:34.807Z,3.13
2022-11-19T10:53:40.623Z,3.25
2022-11-19T10:54:43.397Z,3.30
2022-11-19T10:55:54.160Z,3.65
2022-11-19T10:56:58.859Z,3.70
2022-11-19T10:58:09.426Z,3.50
2022-11-19T10:59:16.388Z,3.58
2022-11-19T11:00:19.053Z,3.45
2022-11-19T11:01:29.442Z,3.67
2022-11-19T11:02:40.656Z,3.30
2022-11-19T11:03:48.148Z,3.20
2022-11-19T11:05:03.377Z,3.10
2022-11-19T11:06:10.179Z,3.75
2022-11-19T11:07:12.357Z,3.63
2022-11-19T11:08:15.454Z,3.20
2022-11-19T11:09:29.259Z,3.38
2022-11-19T11:10:38.634Z,3.40
2022-11-19T11:11:55.860Z,3.33
2022-11-19T11:13:23.751Z,3.13
2022-11-19T11:14:44.362Z,3.25
2022-11-19T11:15:50.496Z,2.95
2022-11-19T11:16:54.284Z,3.22
2022-11-19T11:18:02.763Z,3.28
2022-11-19T11:19:13.673Z,3.10
2022-11-19T11:20:24.074Z,3.10
2022-11-19T11:21:35.583Z,3.38
2022-11-19T11:22:38.514Z,2.95
2022-11-19T11:23:51.974Z,3.10
2022-11-19T11:24:54.607Z,3.00
2022-11-19T11:26:05.565Z,3.05
2022-11-19T11:27:22.074Z,3.15
2022-11-19T11:28:25.382Z,2.63
2022-11-19T11:29:28.722Z,2.47
2022-11-19T11:30:31.190Z,2.33
2022-11-19T11:31:39.745Z,2.40
2022-11-19T11:32:42.108Z,2.42
2022-11-19T11:33:56.736Z,2.15
2022-11-19T11:35:03.606Z,2.35
2022-11-19T11:36:13.719Z,2.33
2022-11-19T11:37:17.316Z,1.77
2022-11-19T11:38:23.717Z,2.10
2022-11-19T11:39:29.200Z,1.92
2022-11-19T11:40:31.684Z,2.10
2022-11-19T11:42:05.566Z,2.47
2022-11-19T11:43:00.977Z,2.20
2022-11-19T11:44:08.285Z,1.95
2022-11-19T11:45:23.387Z,2.20
2022-11-19T11:46:25.522Z,2.40
2022-11-19T11:47:31.677Z,2.30
2022-11-19T11:48:42.004Z,2.50
2022-11-19T11:49:47.695Z,2.42
2022-11-19T11:50:49.912Z,2.30
2022-11-19T11:52:12.811Z,2.10
2022-11-19T11:53:28.657Z,2.40
2022-11-19T11:54:31.642Z,2.20
2022-11-19T11:55:34.779Z,2.30
2022-11-19T11:56:37.903Z,2.25
2022-11-19T11:57:52.880Z,1.83
2022-11-19T11:59:13.726Z,2.00
2022-11-19T12:00:31.353Z,2.03
2022-11-19T12:01:33.509Z,2.13
2022-11-19T12:02:37.037Z,1.80
2022-11-19T12:03:55.145Z,2.00
2022-11-19T12:05:01.129Z,2.10
2022-11-19T12:06:11.362Z,2.08
2022-11-19T12:07:28.992Z,1.98
2022-11-19T12:08:46.281Z,1.90
2022-11-19T12:10:03.315Z,1.98
2022-11-19T12:11:12.710Z,1.90
2022-11-19T12:12:24.416Z,2.40
2022-11-19T12:13:54.995Z,1.90
2022-11-19T12:15:04.861Z,1.92
2022-11-19T12:16:12.521Z,1.90
2022-11-19T12:17:27.968Z,2.00
2022-11-19T12:18:39.022Z,1.90
2022-11-19T12:19:57.618Z,1.85
2022-11-19T12:21:10.238Z,2.22
2022-11-19T12:22:23.942Z,1.85
2022-11-19T12:23:44.067Z,2.35
2022-11-19T12:25:07.821Z,2.10
2022-11-19T12:26:18.778Z,2.20
2022-11-19T12:27:31.070Z,2.30
2022-11-19T12:28:50.619Z,2.13
2022-11-19T12:30:01.754Z,2.03
2022-11-19T12:31:19.883Z,2.10
2022-11-19T12:32:44.538Z,2.00
2022-11-19T12:34:07.160Z,1.70
2022-11-19T12:35:23.275Z,1.75
2022-11-19T12:36:39.603Z,1.90
2022-11-19T12:38:06.784Z,1.90
2022-11-19T12:39:24.230Z,2.97
2022-11-19T12:40:40.931Z,2.00
2022-11-19T12:42:10.068Z,2.08
2022-11-19T12:43:29.524Z,2.10
2022-11-19T12:44:43.487Z,1.60
2022-11-19T12:45:54.525Z,1.70
2022-11-19T12:47:15.111Z,1.70
2022-11-19T12:48:35.054Z,1.70
2022-11-19T12:49:58.143Z,1.57
2022-11-19T12:51:14.656Z,1.70
2022-11-19T12:52:41.448Z,1.42
2022-11-19T12:54:10.655Z,1.55
2022-11-19T12:55:24.531Z,1.58
2022-11-19T12:56:42.160Z,1.65
2022-11-19T12:57:56.007Z,2.00
2022-11-19T12:59:06.349Z,1.90
2022-11-19T13:00:14.817Z,1.90
2022-11-19T13:01:22.219Z,2.08
2022-11-19T13:02:29.845Z,2.20
2022-11-19T13:03:47.777Z,1.98
2022-11-19T13:04:56.015Z,1.83
2022-11-19T13:06:05.758Z,1.80
2022-11-19T13:07:14.508Z,1.90
2022-11-19T13:08:21.836Z,1.70
2022-11-19T13:09:34.377Z,1.65
2022-11-19T13:10:44.191Z,1.40
2022-11-19T13:11:52.613Z,1.70
2022-11-19T13:12:57.118Z,1.50
2022-11-19T13:14:06.585Z,2.00
2022-11-19T13:15:16.499Z,1.80
2022-11-19T13:16:21.158Z,1.60
2022-11-19T13:17:28.380Z,2.00
2022-11-19T13:18:34.836Z,1.80
2022-11-19T13:19:39.833Z,1.80
2022-11-19T13:20:48.604Z,1.73
2022-11-19T13:21:58.110Z,1.90
2022-11-19T13:23:05.389Z,2.38
2022-11-19T13:24:17.580Z,2.13
2022-11-19T13:25:25.474Z,1.80
2022-11-19T13:26:34.920Z,2.00
2022-11-19T13:27:37.537Z,2.00
2022-11-19T13:28:48.497Z,1.60
2022-11-19T13:29:57.339Z,2.10
2022-11-19T13:31:06.873Z,2.00
2022-11-19T13:32:19.144Z,2.00
2022-11-19T13:33:26.740Z,2.22
2022-11-19T13:34:37.742Z,1.80
2022-11-19T13:35:46.944Z,2.08
2022-11-19T13:37:01.972Z,1.77
2022-11-19T13:38:13.240Z,2.10
2022-11-19T13:39:27.614Z,1.92
2022-11-19T13:40:36.883Z,2.03
2022-11-19T13:42:01.216Z,2.30
2022-11-19T13:43:32.191Z,2.63
2022-11-19T13:44:41.440Z,2.35
2022-11-19T13:45:52.784Z,3.00
2022-11-19T13:46:59.075Z,2.33
2022-11-19T13:48:06.053Z,5.13
2022-11-19T13:49:17.590Z,2.28
2022-11-19T13:50:24.168Z,1.80
2022-11-19T13:51:31.587Z,1.73
2022-11-19T13:52:38.405Z,2.00
2022-11-19T13:53:45.268Z,1.60
2022-11-19T13:54:48.656Z,2.05
2022-11-19T13:55:57.931Z,1.98
2022-11-19T13:57:03.263Z,1.80
2022-11-19T13:58:18.820Z,1.55
2022-11-19T13:59:28.751Z,2.28
2022-11-19T14:00:31.255Z,2.50
2022-11-19T14:01:50.476Z,2.25
2022-11-19T14:03:10.725Z,1.67
2022-11-19T14:04:34.907Z,1.70
2022-11-19T14:05:51.462Z,1.83
2022-11-19T14:07:18.634Z,2.08
2022-11-19T14:08:37.092Z,1.88
2022-11-19T14:09:49.104Z,1.80
2022-11-19T14:11:05.676Z,1.40
2022-11-19T14:12:43.178Z,1.40
2022-11-19T14:14:04.411Z,1.50
2022-11-19T14:15:53.647Z,1.40
2022-11-19T14:17:20.860Z,1.42
2022-11-19T14:18:48.961Z,1.60
2022-11-19T14:20:14.295Z,1.33
2022-11-19T14:22:04.043Z,1.50
2022-11-19T14:23:27.109Z,1.30
2022-11-19T14:25:15.146Z,1.40
2022-11-19T14:26:52.548Z,1.75
2022-11-19T14:27:57.203Z,1.65
2022-11-19T14:28:59.360Z,1.75
2022-11-19T14:30:04.616Z,1.52
2022-11-19T14:31:06.923Z,1.63
2022-11-19T14:32:19.976Z,1.60
2022-11-19T14:33:42.653Z,1.65
2022-11-19T14:34:47.790Z,1.75
2022-11-19T14:35:52.637Z,1.90
2022-11-19T14:36:57.780Z,2.10
2022-11-19T14:38:32.059Z,1.58
2022-11-19T14:39:43.842Z,1.85
2022-11-19T14:40:46.763Z,1.90
2022-11-19T14:42:14.966Z,1.70
2022-11-19T14:43:43.099Z,2.10
2022-11-19T14:44:46.821Z,1.83
2022-11-19T14:46:24.523Z,1.90
2022-11-19T14:47:34.428Z,2.10
2022-11-19T14:48:51.902Z,2.20
2022-11-19T14:49:55.905Z,1.75